Anna, Illinois
Current Conditions -  °F | °C
As of 3:52 AM on Saturday 01 Nov 2014 (Local Time) from KMDH Reporting Station
Clear Clear  
Wind Chill: 24°   Ceiling: Unl
Heat Index: 32°   Visibility: 10mi
Dew Point: 22°   Wind: 10mph
Humidity: 66%   Direction: 330°NNW
Pressure: 30.35"   Gusts: NA
Location:  37.46°N, 89.25°W
Report Text: KMDH 010852Z AUTO 33009KT 10SM CLR 00/M06 A3035 RMK AO2 SLP280 T00001056 TSNO $
Loading
Personal Weather Stations






























Interactive Weather Map
Tropical Storm Tracking
New forecast layout! Learn more

10-Day Weather Forecast

Advertisements
Track Severe Weather on mobile